sensor_id;sensor_type;location;lat;lon;timestamp;temperature;humidity
56436;DHT22;42335;44.872;20.658;2023-03-01T00:00:19;128.60;2252.80
56436;DHT22;42335;44.872;20.658;2023-03-01T00:02:45;128.70;2252.80
56436;DHT22;42335;44.872;20.658;2023-03-01T00:05:11;128.60;2252.80
56436;DHT22;42335;44.872;20.658;2023-03-01T00:07:38;128.70;2252.80
56436;DHT22;42335;44.872;20.658;2023-03-01T00:10:04;128.70;2252.80
56436;DHT22;42335;44.872;20.658;2023-03-01T00:12:31;128.70;2252.80
56436;DHT22;42335;44.872;20.658;2023-03-01T00:14:56;128.70;2252.80
56436;DHT22;42335;44.872;20.658;2023-03-01T00:17:22;128.70;2252.80
56436;DHT22;42335;44.872;20.658;2023-03-01T00:19:48;128.60;2252.80
56436;DHT22;42335;44.872;20.658;2023-03-01T00:22:14;128.60;2252.80
56436;DHT22;42335;44.872;20.658;2023-03-01T00:24:39;128.70;2252.80
56436;DHT22;42335;44.872;20.658;2023-03-01T00:27:05;128.70;2252.80
56436;DHT22;42335;44.872;20.658;2023-03-01T00:29:31;128.70;2252.80
56436;DHT22;42335;44.872;20.658;2023-03-01T00:31:57;128.70;2252.80
56436;DHT22;42335;44.872;20.658;2023-03-01T00:34:22;128.70;2252.80
56436;DHT22;42335;44.872;20.658;2023-03-01T00:36:49;128.70;2252.80
56436;DHT22;42335;44.872;20.658;2023-03-01T00:39:15;128.70;2252.80
56436;DHT22;42335;44.872;20.658;2023-03-01T00:41:41;128.80;2252.80
56436;DHT22;42335;44.872;20.658;2023-03-01T00:44:07;128.70;2252.80
56436;DHT22;42335;44.872;20.658;2023-03-01T00:46:33;128.70;2252.80
56436;DHT22;42335;44.872;20.658;2023-03-01T00:49:00;128.80;2252.80
56436;DHT22;42335;44.872;20.658;2023-03-01T00:51:28;128.80;2252.80
56436;DHT22;42335;44.872;20.658;2023-03-01T00:53:55;128.80;2252.80
56436;DHT22;42335;44.872;20.658;2023-03-01T00:56:22;128.80;2252.80
56436;DHT22;42335;44.872;20.658;2023-03-01T00:58:48;128.80;2252.80
56436;DHT22;42335;44.872;20.658;2023-03-01T01:01:17;128.80;2252.80
56436;DHT22;42335;44.872;20.658;2023-03-01T01:03:47;128.80;2252.80
56436;DHT22;42335;44.872;20.658;2023-03-01T01:06:15;128.80;2252.80
56436;DHT22;42335;44.872;20.658;2023-03-01T01:08:41;128.90;2252.80
56436;DHT22;42335;44.872;20.658;2023-03-01T01:11:09;128.80;2252.80
56436;DHT22;42335;44.872;20.658;2023-03-01T01:13:36;128.80;2252.80
56436;DHT22;42335;44.872;20.658;2023-03-01T01:16:02;128.80;2252.80
56436;DHT22;42335;44.872;20.658;2023-03-01T01:18:29;128.80;2252.80
56436;DHT22;42335;44.872;20.658;2023-03-01T01:20:55;128.80;2252.80
56436;DHT22;42335;44.872;20.658;2023-03-01T01:23:21;128.80;2252.80
56436;DHT22;42335;44.872;20.658;2023-03-01T01:25:47;128.80;2252.80
56436;DHT22;42335;44.872;20.658;2023-03-01T01:28:13;128.70;2252.80
56436;DHT22;42335;44.872;20.658;2023-03-01T01:30:38;128.80;2252.80
56436;DHT22;42335;44.872;20.658;2023-03-01T01:33:05;128.80;2252.80
56436;DHT22;42335;44.872;20.658;2023-03-01T01:35:31;153.80;2252.80
56436;DHT22;42335;44.872;20.658;2023-03-01T01:37:56;128.80;2252.80
56436;DHT22;42335;44.872;20.658;2023-03-01T01:40:22;128.70;2252.80
56436;DHT22;42335;44.872;20.658;2023-03-01T01:42:48;128.80;2252.80
56436;DHT22;42335;44.872;20.658;2023-03-01T01:45:46;128.80;2252.80
56436;DHT22;42335;44.872;20.658;2023-03-01T01:48:20;128.90;2252.80
56436;DHT22;42335;44.872;20.658;2023-03-01T01:50:55;128.90;2252.80
56436;DHT22;42335;44.872;20.658;2023-03-01T01:53:23;128.80;2252.80
56436;DHT22;42335;44.872;20.658;2023-03-01T01:55:55;128.80;2252.80
56436;DHT22;42335;44.872;20.658;2023-03-01T01:58:26;128.80;2252.80
56436;DHT22;42335;44.872;20.658;2023-03-01T02:00:53;128.80;2252.80
56436;DHT22;42335;44.872;20.658;2023-03-01T02:03:27;128.80;2252.80
56436;DHT22;42335;44.872;20.658;2023-03-01T02:08:45;128.80;2252.80
56436;DHT22;42335;44.872;20.658;2023-03-01T02:11:13;128.80;2252.80
56436;DHT22;42335;44.872;20.658;2023-03-01T02:13:42;128.80;2252.80
56436;DHT22;42335;44.872;20.658;2023-03-01T02:16:10;128.80;2252.80
56436;DHT22;42335;44.872;20.658;2023-03-01T02:18:39;128.80;2252.80
56436;DHT22;42335;44.872;20.658;2023-03-01T02:23:33;128.80;2252.80
56436;DHT22;42335;44.872;20.658;2023-03-01T02:26:17;128.80;2252.80
56436;DHT22;42335;44.872;20.658;2023-03-01T02:28:45;128.70;2252.80
56436;DHT22;42335;44.872;20.658;2023-03-01T02:31:16;128.70;2252.80
56436;DHT22;42335;44.872;20.658;2023-03-01T02:34:02;128.70;2252.80
56436;DHT22;42335;44.872;20.658;2023-03-01T02:36:35;128.70;2252.80
56436;DHT22;42335;44.872;20.658;2023-03-01T02:39:03;128.70;2252.80
56436;DHT22;42335;44.872;20.658;2023-03-01T02:41:34;128.70;2252.80
56436;DHT22;42335;44.872;20.658;2023-03-01T02:44:01;128.80;2252.80
56436;DHT22;42335;44.872;20.658;2023-03-01T02:46:27;128.80;2252.80
56436;DHT22;42335;44.872;20.658;2023-03-01T02:48:55;128.70;2252.80
56436;DHT22;42335;44.872;20.658;2023-03-01T02:56:41;128.70;2252.80
56436;DHT22;42335;44.872;20.658;2023-03-01T02:59:08;128.80;2252.80
56436;DHT22;42335;44.872;20.658;2023-03-01T03:01:35;128.80;2252.80
56436;DHT22;42335;44.872;20.658;2023-03-01T03:04:05;128.80;2252.80
56436;DHT22;42335;44.872;20.658;2023-03-01T03:06:31;128.70;2252.80
56436;DHT22;42335;44.872;20.658;2023-03-01T03:08:57;128.80;2252.80
56436;DHT22;42335;44.872;20.658;2023-03-01T03:11:23;128.80;2252.80
56436;DHT22;42335;44.872;20.658;2023-03-01T03:13:49;128.70;2252.80
56436;DHT22;42335;44.872;20.658;2023-03-01T03:16:17;128.70;2252.80
56436;DHT22;42335;44.872;20.658;2023-03-01T03:18:43;128.80;2252.80
56436;DHT22;42335;44.872;20.658;2023-03-01T03:21:11;128.80;2252.80
56436;DHT22;42335;44.872;20.658;2023-03-01T03:23:37;128.80;2252.80
56436;DHT22;42335;44.872;20.658;2023-03-01T03:26:05;128.80;2252.80
56436;DHT22;42335;44.872;20.658;2023-03-01T03:28:35;128.80;2252.80
56436;DHT22;42335;44.872;20.658;2023-03-01T03:31:00;128.90;2252.80
56436;DHT22;42335;44.872;20.658;2023-03-01T03:33:31;128.90;2252.80
56436;DHT22;42335;44.872;20.658;2023-03-01T03:35:57;128.90;2252.80
56436;DHT22;42335;44.872;20.658;2023-03-01T03:38:23;128.90;2252.80
56436;DHT22;42335;44.872;20.658;2023-03-01T03:40:51;128.90;2252.80
56436;DHT22;42335;44.872;20.658;2023-03-01T03:43:20;128.90;2252.80
56436;DHT22;42335;44.872;20.658;2023-03-01T03:45:47;128.90;2252.80
56436;DHT22;42335;44.872;20.658;2023-03-01T03:48:13;128.90;2252.80
56436;DHT22;42335;44.872;20.658;2023-03-01T03:50:39;128.90;2252.80
56436;DHT22;42335;44.872;20.658;2023-03-01T03:53:08;128.90;2252.80
56436;DHT22;42335;44.872;20.658;2023-03-01T03:55:35;128.90;2252.80
56436;DHT22;42335;44.872;20.658;2023-03-01T03:58:05;128.90;2252.80
56436;DHT22;42335;44.872;20.658;2023-03-01T04:00:40;128.90;2252.80
56436;DHT22;42335;44.872;20.658;2023-03-01T04:03:07;128.90;2252.80
56436;DHT22;42335;44.872;20.658;2023-03-01T04:05:33;128.90;2252.80
56436;DHT22;42335;44.872;20.658;2023-03-01T04:07:59;128.90;2252.80
56436;DHT22;42335;44.872;20.658;2023-03-01T04:10:33;128.90;2252.80
56436;DHT22;42335;44.872;20.658;2023-03-01T04:12:59;128.90;2252.80
56436;DHT22;42335;44.872;20.658;2023-03-01T04:15:26;153.60;2252.80
56436;DHT22;42335;44.872;20.658;2023-03-01T04:17:54;128.90;2252.80
56436;DHT22;42335;44.872;20.658;2023-03-01T04:20:23;153.60;2252.80
56436;DHT22;42335;44.872;20.658;2023-03-01T04:25:57;153.60;2252.80
56436;DHT22;42335;44.872;20.658;2023-03-01T04:28:26;153.60;2252.80
56436;DHT22;42335;44.872;20.658;2023-03-01T04:30:53;153.60;2252.80
56436;DHT22;42335;44.872;20.658;2023-03-01T04:33:19;153.60;2252.80
56436;DHT22;42335;44.872;20.658;2023-03-01T04:35:45;153.60;2252.80
56436;DHT22;42335;44.872;20.658;2023-03-01T04:38:11;153.60;2252.80
56436;DHT22;42335;44.872;20.658;2023-03-01T04:40:37;153.70;2252.80
56436;DHT22;42335;44.872;20.658;2023-03-01T04:43:04;153.70;2252.80
56436;DHT22;42335;44.872;20.658;2023-03-01T04:45:31;153.70;2252.80
56436;DHT22;42335;44.872;20.658;2023-03-01T04:47:57;153.70;2252.80
56436;DHT22;42335;44.872;20.658;2023-03-01T04:50:23;153.70;2252.80
56436;DHT22;42335;44.872;20.658;2023-03-01T04:52:51;153.70;2252.80
56436;DHT22;42335;44.872;20.658;2023-03-01T04:55:17;153.70;2252.80
56436;DHT22;42335;44.872;20.658;2023-03-01T04:57:43;153.80;2252.80
56436;DHT22;42335;44.872;20.658;2023-03-01T05:00:11;153.80;2252.80
56436;DHT22;42335;44.872;20.658;2023-03-01T05:02:48;153.80;2252.80
56436;DHT22;42335;44.872;20.658;2023-03-01T05:05:26;153.80;2252.80
56436;DHT22;42335;44.872;20.658;2023-03-01T05:07:56;153.80;2252.80
56436;DHT22;42335;44.872;20.658;2023-03-01T05:10:23;153.80;2252.80
56436;DHT22;42335;44.872;20.658;2023-03-01T05:12:49;153.80;2252.80
56436;DHT22;42335;44.872;20.658;2023-03-01T05:15:18;153.90;2252.80
56436;DHT22;42335;44.872;20.658;2023-03-01T05:17:44;153.90;2252.80
56436;DHT22;42335;44.872;20.658;2023-03-01T05:20:10;153.90;2252.80
56436;DHT22;42335;44.872;20.658;2023-03-01T05:22:36;153.90;2252.80
56436;DHT22;42335;44.872;20.658;2023-03-01T05:25:03;154.00;2252.80
56436;DHT22;42335;44.872;20.658;2023-03-01T05:27:29;153.90;2252.80
56436;DHT22;42335;44.872;20.658;2023-03-01T05:29:55;153.90;2252.80
56436;DHT22;42335;44.872;20.658;2023-03-01T05:32:21;153.90;2252.80
56436;DHT22;42335;44.872;20.658;2023-03-01T05:34:47;154.00;2252.80
56436;DHT22;42335;44.872;20.658;2023-03-01T05:37:13;153.90;2252.80
56436;DHT22;42335;44.872;20.658;2023-03-01T05:39:39;154.00;2252.80
56436;DHT22;42335;44.872;20.658;2023-03-01T05:42:05;154.00;2252.80
56436;DHT22;42335;44.872;20.658;2023-03-01T05:44:31;154.00;2252.80
56436;DHT22;42335;44.872;20.658;2023-03-01T05:46:57;154.00;2252.80
56436;DHT22;42335;44.872;20.658;2023-03-01T05:49:22;154.10;2252.80
56436;DHT22;42335;44.872;20.658;2023-03-01T05:51:53;154.10;2252.80
56436;DHT22;42335;44.872;20.658;2023-03-01T05:54:20;154.10;2252.80
56436;DHT22;42335;44.872;20.658;2023-03-01T05:56:47;154.10;2252.80
56436;DHT22;42335;44.872;20.658;2023-03-01T05:59:12;154.20;2252.80
56436;DHT22;42335;44.872;20.658;2023-03-01T06:01:39;154.10;2252.80
56436;DHT22;42335;44.872;20.658;2023-03-01T06:04:06;154.20;2252.80
56436;DHT22;42335;44.872;20.658;2023-03-01T06:06:36;154.20;2252.80
56436;DHT22;42335;44.872;20.658;2023-03-01T06:09:03;154.20;2252.80
56436;DHT22;42335;44.872;20.658;2023-03-01T06:11:29;154.20;2252.80
56436;DHT22;42335;44.872;20.658;2023-03-01T06:13:55;154.20;2252.80
56436;DHT22;42335;44.872;20.658;2023-03-01T06:16:21;154.30;2252.80
56436;DHT22;42335;44.872;20.658;2023-03-01T06:18:46;154.30;2252.80
56436;DHT22;42335;44.872;20.658;2023-03-01T06:21:12;179.30;2252.80
56436;DHT22;42335;44.872;20.658;2023-03-01T06:23:38;154.40;2252.80
56436;DHT22;42335;44.872;20.658;2023-03-01T06:26:08;154.30;2252.80
56436;DHT22;42335;44.872;20.658;2023-03-01T06:28:36;154.30;2252.80
56436;DHT22;42335;44.872;20.658;2023-03-01T06:31:02;154.40;2252.80
56436;DHT22;42335;44.872;20.658;2023-03-01T06:33:28;154.40;2252.80
56436;DHT22;42335;44.872;20.658;2023-03-01T06:35:56;154.30;2252.80
56436;DHT22;42335;44.872;20.658;2023-03-01T06:38:23;154.40;2252.80
56436;DHT22;42335;44.872;20.658;2023-03-01T06:40:53;154.40;2252.80
56436;DHT22;42335;44.872;20.658;2023-03-01T06:43:22;154.40;2252.80
56436;DHT22;42335;44.872;20.658;2023-03-01T06:45:48;154.40;2252.80
56436;DHT22;42335;44.872;20.658;2023-03-01T06:48:14;179.20;2252.80
56436;DHT22;42335;44.872;20.658;2023-03-01T06:50:40;179.20;2252.80
56436;DHT22;42335;44.872;20.658;2023-03-01T06:53:06;179.30;2252.80
56436;DHT22;42335;44.872;20.658;2023-03-01T06:55:32;179.40;2252.80
56436;DHT22;42335;44.872;20.658;2023-03-01T06:58:01;179.40;2252.80
56436;DHT22;42335;44.872;20.658;2023-03-01T07:00:28;179.50;2252.80
56436;DHT22;42335;44.872;20.658;2023-03-01T07:02:53;179.40;2252.80
56436;DHT22;42335;44.872;20.658;2023-03-01T07:05:19;179.70;2252.80
56436;DHT22;42335;44.872;20.658;2023-03-01T07:07:45;179.60;2252.80
56436;DHT22;42335;44.872;20.658;2023-03-01T07:10:11;179.60;2252.80
56436;DHT22;42335;44.872;20.658;2023-03-01T07:12:37;179.70;2252.80
56436;DHT22;42335;44.872;20.658;2023-03-01T07:15:03;179.80;2252.80
56436;DHT22;42335;44.872;20.658;2023-03-01T07:17:30;179.80;2252.80
56436;DHT22;42335;44.872;20.658;2023-03-01T07:19:56;179.80;2252.80
56436;DHT22;42335;44.872;20.658;2023-03-01T07:22:22;204.80;2252.80
56436;DHT22;42335;44.872;20.658;2023-03-01T07:24:47;179.90;2252.80
56436;DHT22;42335;44.872;20.658;2023-03-01T07:27:13;180.00;2252.80
56436;DHT22;42335;44.872;20.658;2023-03-01T07:29:39;204.80;2252.80
56436;DHT22;42335;44.872;20.658;2023-03-01T07:32:06;180.00;2252.80
56436;DHT22;42335;44.872;20.658;2023-03-01T07:34:32;180.10;2252.80
56436;DHT22;42335;44.872;20.658;2023-03-01T07:36:57;180.00;2252.80
56436;DHT22;42335;44.872;20.658;2023-03-01T07:39:24;180.00;2252.80
56436;DHT22;42335;44.872;20.658;2023-03-01T07:41:50;180.00;2252.80
56436;DHT22;42335;44.872;20.658;2023-03-01T07:44:16;180.00;2252.80
56436;DHT22;42335;44.872;20.658;2023-03-01T07:46:43;180.00;2252.80
56436;DHT22;42335;44.872;20.658;2023-03-01T07:49:09;180.00;2252.80
56436;DHT22;42335;44.872;20.658;2023-03-01T07:51:35;180.10;2252.80
56436;DHT22;42335;44.872;20.658;2023-03-01T07:54:01;180.10;2252.80
56436;DHT22;42335;44.872;20.658;2023-03-01T07:56:26;180.10;2252.80
56436;DHT22;42335;44.872;20.658;2023-03-01T07:58:52;180.10;2252.80
56436;DHT22;42335;44.872;20.658;2023-03-01T08:01:20;204.80;2252.80
56436;DHT22;42335;44.872;20.658;2023-03-01T08:03:46;204.80;2252.80
56436;DHT22;42335;44.872;20.658;2023-03-01T08:06:14;204.80;2252.80
56436;DHT22;42335;44.872;20.658;2023-03-01T08:08:40;204.90;2252.80
56436;DHT22;42335;44.872;20.658;2023-03-01T08:11:07;205.00;2252.80
56436;DHT22;42335;44.872;20.658;2023-03-01T08:13:33;205.20;2252.80
56436;DHT22;42335;44.872;20.658;2023-03-01T08:16:09;205.20;2252.80
56436;DHT22;42335;44.872;20.658;2023-03-01T08:26:19;205.70;2252.80
56436;DHT22;42335;44.872;20.658;2023-03-01T08:28:45;205.40;2252.80
56436;DHT22;42335;44.872;20.658;2023-03-01T08:31:19;205.50;2252.80
56436;DHT22;42335;44.872;20.658;2023-03-01T08:33:46;205.60;2252.80
56436;DHT22;42335;44.872;20.658;2023-03-01T08:36:25;205.70;2252.80
56436;DHT22;42335;44.872;20.658;2023-03-01T08:38:51;205.70;2252.80
56436;DHT22;42335;44.872;20.658;2023-03-01T08:43:44;230.70;2252.80
56436;DHT22;42335;44.872;20.658;2023-03-01T08:46:10;230.40;2252.80
56436;DHT22;42335;44.872;20.658;2023-03-01T08:48:36;230.40;2252.80
56436;DHT22;42335;44.872;20.658;2023-03-01T08:51:13;230.80;2252.80
56436;DHT22;42335;44.872;20.658;2023-03-01T08:53:40;230.60;2252.80
56436;DHT22;42335;44.872;20.658;2023-03-01T08:56:08;231.00;2252.80
56436;DHT22;42335;44.872;20.658;2023-03-01T08:58:34;230.70;2252.80
56436;DHT22;42335;44.872;20.658;2023-03-01T09:01:00;230.60;2252.80
56436;DHT22;42335;44.872;20.658;2023-03-01T09:03:26;230.70;2252.80
56436;DHT22;42335;44.872;20.658;2023-03-01T09:06:00;230.80;2252.80
56436;DHT22;42335;44.872;20.658;2023-03-01T09:08:26;230.90;2252.80
56436;DHT22;42335;44.872;20.658;2023-03-01T09:10:52;231.00;2252.80
56436;DHT22;42335;44.872;20.658;2023-03-01T09:15:44;256.20;2252.80
56436;DHT22;42335;44.872;20.658;2023-03-01T09:18:10;256.00;2252.80
56436;DHT22;42335;44.872;20.658;2023-03-01T09:20:36;256.10;2252.80
56436;DHT22;42335;44.872;20.658;2023-03-01T09:23:02;256.10;2252.80
56436;DHT22;42335;44.872;20.658;2023-03-01T09:25:27;256.20;2252.80
56436;DHT22;42335;44.872;20.658;2023-03-01T09:27:54;256.40;2252.80
56436;DHT22;42335;44.872;20.658;2023-03-01T09:30:20;256.60;2252.80
56436;DHT22;42335;44.872;20.658;2023-03-01T09:32:46;281.60;2278.40
56436;DHT22;42335;44.872;20.658;2023-03-01T09:35:12;281.60;2278.40
56436;DHT22;42335;44.872;20.658;2023-03-01T09:37:38;281.70;2278.40
56436;DHT22;42335;44.872;20.658;2023-03-01T09:40:28;281.70;2278.40
56436;DHT22;42335;44.872;20.658;2023-03-01T09:43:29;281.70;2278.40
56436;DHT22;42335;44.872;20.658;2023-03-01T09:46:02;281.80;2278.40
56436;DHT22;42335;44.872;20.658;2023-03-01T09:48:36;281.80;2278.40
56436;DHT22;42335;44.872;20.658;2023-03-01T09:51:09;281.70;2278.40
56436;DHT22;42335;44.872;20.658;2023-03-01T09:53:38;282.20;2278.40
56436;DHT22;42335;44.872;20.658;2023-03-01T09:56:36;282.10;2278.40
56436;DHT22;42335;44.872;20.658;2023-03-01T10:04:50;307.30;2304.00
56436;DHT22;42335;44.872;20.658;2023-03-01T10:07:52;307.80;2304.00
56436;DHT22;42335;44.872;20.658;2023-03-01T10:10:34;307.90;2304.00
56436;DHT22;42335;44.872;20.658;2023-03-01T10:13:14;332.80;2329.60
56436;DHT22;42335;44.872;20.658;2023-03-01T10:16:10;333.50;2329.60
56436;DHT22;42335;44.872;20.658;2023-03-01T10:18:33;358.60;2304.00
56436;DHT22;42335;44.872;20.658;2023-03-01T10:21:15;359.20;2150.40
56436;DHT22;42335;44.872;20.658;2023-03-01T10:23:42;359.30;1971.20
56436;DHT22;42335;44.872;20.658;2023-03-01T10:31:51;384.80;1894.40
56436;DHT22;42335;44.872;20.658;2023-03-01T10:36:52;435.50;1740.80
56436;DHT22;42335;44.872;20.658;2023-03-01T10:39:20;435.30;1766.40
56436;DHT22;42335;44.872;20.658;2023-03-01T10:44:44;435.20;1740.80
56436;DHT22;42335;44.872;20.658;2023-03-01T10:52:21;410.50;1766.40
56436;DHT22;42335;44.872;20.658;2023-03-01T10:55:02;435.60;1689.60
56436;DHT22;42335;44.872;20.658;2023-03-01T10:57:38;435.60;1689.60
56436;DHT22;42335;44.872;20.658;2023-03-01T11:00:23;460.80;1612.80
56436;DHT22;42335;44.872;20.658;2023-03-01T11:03:13;435.40;1664.00
56436;DHT22;42335;44.872;20.658;2023-03-01T11:11:31;410.50;1689.60
56436;DHT22;42335;44.872;20.658;2023-03-01T11:16:45;435.20;1715.20
56436;DHT22;42335;44.872;20.658;2023-03-01T11:24:16;410.50;1740.80
56436;DHT22;42335;44.872;20.658;2023-03-01T11:26:46;435.50;1689.60
56436;DHT22;42335;44.872;20.658;2023-03-01T11:34:11;460.80;1612.80
56436;DHT22;42335;44.872;20.658;2023-03-01T11:36:54;460.80;1612.80
56436;DHT22;42335;44.872;20.658;2023-03-01T11:39:26;460.80;1638.40
56436;DHT22;42335;44.872;20.658;2023-03-01T11:44:40;435.80;1612.80
56436;DHT22;42335;44.872;20.658;2023-03-01T11:50:01;460.90;1561.60
56436;DHT22;42335;44.872;20.658;2023-03-01T11:52:57;436.10;1561.60
56436;DHT22;42335;44.872;20.658;2023-03-01T12:09:27;538.10;1254.40
56436;DHT22;42335;44.872;20.658;2023-03-01T12:23:07;460.90;1536.00
56436;DHT22;42335;44.872;20.658;2023-03-01T12:25:55;460.90;1561.60
56436;DHT22;42335;44.872;20.658;2023-03-01T12:34:11;435.20;1612.80
56436;DHT22;42335;44.872;20.658;2023-03-01T12:52:09;384.00;1766.40
56436;DHT22;42335;44.872;20.658;2023-03-01T12:54:36;359.30;1766.40
56436;DHT22;42335;44.872;20.658;2023-03-01T12:57:36;333.70;1843.20
56436;DHT22;42335;44.872;20.658;2023-03-01T14:56:05;307.70;2304.00
56436;DHT22;42335;44.872;20.658;2023-03-01T14:58:32;307.50;2304.00
56436;DHT22;42335;44.872;20.658;2023-03-01T15:01:04;307.20;2304.00
56436;DHT22;42335;44.872;20.658;2023-03-01T15:03:43;282.40;2278.40
56436;DHT22;42335;44.872;20.658;2023-03-01T15:06:10;282.20;2278.40
56436;DHT22;42335;44.872;20.658;2023-03-01T15:08:47;282.10;2278.40
56436;DHT22;42335;44.872;20.658;2023-03-01T15:13:42;281.70;2278.40
56436;DHT22;42335;44.872;20.658;2023-03-01T15:16:16;281.60;2278.40
56436;DHT22;42335;44.872;20.658;2023-03-01T15:18:51;256.80;2252.80
56436;DHT22;42335;44.872;20.658;2023-03-01T15:21:29;256.70;2252.80
56436;DHT22;42335;44.872;20.658;2023-03-01T15:24:32;256.40;2252.80
56436;DHT22;42335;44.872;20.658;2023-03-01T15:26:53;256.30;2252.80
56436;DHT22;42335;44.872;20.658;2023-03-01T15:29:23;256.10;2252.80
56436;DHT22;42335;44.872;20.658;2023-03-01T15:32:04;256.00;2252.80
56436;DHT22;42335;44.872;20.658;2023-03-01T15:34:36;256.00;2252.80
56436;DHT22;42335;44.872;20.658;2023-03-01T15:37:04;256.00;2252.80
56436;DHT22;42335;44.872;20.658;2023-03-01T15:47:48;231.10;2252.80
56436;DHT22;42335;44.872;20.658;2023-03-01T15:50:53;231.00;2252.80
56436;DHT22;42335;44.872;20.658;2023-03-01T15:53:13;230.80;2252.80
56436;DHT22;42335;44.872;20.658;2023-03-01T15:55:41;230.90;2252.80
56436;DHT22;42335;44.872;20.658;2023-03-01T15:58:13;230.90;2252.80
56436;DHT22;42335;44.872;20.658;2023-03-01T16:00:39;230.90;2252.80
56436;DHT22;42335;44.872;20.658;2023-03-01T16:03:06;230.90;2252.80
56436;DHT22;42335;44.872;20.658;2023-03-01T16:05:35;230.80;2252.80
56436;DHT22;42335;44.872;20.658;2023-03-01T16:08:01;230.80;2252.80
56436;DHT22;42335;44.872;20.658;2023-03-01T16:10:27;230.80;2252.80
56436;DHT22;42335;44.872;20.658;2023-03-01T16:12:54;230.70;2252.80
56436;DHT22;42335;44.872;20.658;2023-03-01T16:17:52;230.60;2252.80
56436;DHT22;42335;44.872;20.658;2023-03-01T16:20:18;230.60;2252.80
56436;DHT22;42335;44.872;20.658;2023-03-01T16:22:45;230.60;2252.80
56436;DHT22;42335;44.872;20.658;2023-03-01T16:25:12;230.50;2252.80
56436;DHT22;42335;44.872;20.658;2023-03-01T16:27:41;230.50;2252.80
56436;DHT22;42335;44.872;20.658;2023-03-01T16:30:07;205.70;2252.80
56436;DHT22;42335;44.872;20.658;2023-03-01T16:32:38;230.40;2252.80
56436;DHT22;42335;44.872;20.658;2023-03-01T16:35:04;205.70;2252.80
56436;DHT22;42335;44.872;20.658;2023-03-01T16:37:32;205.70;2252.80
56436;DHT22;42335;44.872;20.658;2023-03-01T16:39:58;205.60;2252.80
56436;DHT22;42335;44.872;20.658;2023-03-01T16:42:24;205.60;2252.80
56436;DHT22;42335;44.872;20.658;2023-03-01T16:44:55;205.60;2252.80
56436;DHT22;42335;44.872;20.658;2023-03-01T16:47:21;205.50;2252.80
56436;DHT22;42335;44.872;20.658;2023-03-01T16:49:47;205.40;2252.80
56436;DHT22;42335;44.872;20.658;2023-03-01T16:52:13;205.40;2252.80
56436;DHT22;42335;44.872;20.658;2023-03-01T16:54:38;205.40;2252.80
56436;DHT22;42335;44.872;20.658;2023-03-01T16:57:04;205.30;2252.80
56436;DHT22;42335;44.872;20.658;2023-03-01T16:59:30;205.20;2252.80
56436;DHT22;42335;44.872;20.658;2023-03-01T17:01:56;205.20;2252.80
56436;DHT22;42335;44.872;20.658;2023-03-01T17:04:21;205.10;2252.80
56436;DHT22;42335;44.872;20.658;2023-03-01T17:06:47;205.10;2252.80
56436;DHT22;42335;44.872;20.658;2023-03-01T17:09:18;205.10;2252.80
56436;DHT22;42335;44.872;20.658;2023-03-01T17:11:47;205.10;2252.80
56436;DHT22;42335;44.872;20.658;2023-03-01T17:14:13;205.10;2252.80
56436;DHT22;42335;44.872;20.658;2023-03-01T17:16:41;205.00;2252.80
56436;DHT22;42335;44.872;20.658;2023-03-01T17:19:07;205.00;2252.80
56436;DHT22;42335;44.872;20.658;2023-03-01T17:21:33;204.90;2252.80
56436;DHT22;42335;44.872;20.658;2023-03-01T17:23:59;204.90;2252.80
56436;DHT22;42335;44.872;20.658;2023-03-01T17:26:25;205.00;2252.80
56436;DHT22;42335;44.872;20.658;2023-03-01T17:28:56;205.00;2252.80
56436;DHT22;42335;44.872;20.658;2023-03-01T17:31:23;205.10;2252.80
56436;DHT22;42335;44.872;20.658;2023-03-01T17:33:49;205.00;2252.80
56436;DHT22;42335;44.872;20.658;2023-03-01T17:36:17;205.00;2252.80
56436;DHT22;42335;44.872;20.658;2023-03-01T17:38:42;204.90;2252.80
56436;DHT22;42335;44.872;20.658;2023-03-01T17:41:09;204.90;2252.80
56436;DHT22;42335;44.872;20.658;2023-03-01T17:43:37;205.00;2252.80
56436;DHT22;42335;44.872;20.658;2023-03-01T17:46:03;204.80;2252.80
56436;DHT22;42335;44.872;20.658;2023-03-01T17:48:29;204.90;2252.80
56436;DHT22;42335;44.872;20.658;2023-03-01T17:50:55;204.80;2252.80
56436;DHT22;42335;44.872;20.658;2023-03-01T17:53:21;204.90;2252.80
56436;DHT22;42335;44.872;20.658;2023-03-01T17:55:48;204.90;2252.80
56436;DHT22;42335;44.872;20.658;2023-03-01T17:58:18;204.90;2252.80
56436;DHT22;42335;44.872;20.658;2023-03-01T18:00:48;204.90;2252.80
56436;DHT22;42335;44.872;20.658;2023-03-01T18:03:15;205.00;2252.80
56436;DHT22;42335;44.872;20.658;2023-03-01T18:05:40;205.00;2252.80
56436;DHT22;42335;44.872;20.658;2023-03-01T18:08:06;205.00;2252.80
56436;DHT22;42335;44.872;20.658;2023-03-01T18:10:32;205.00;2252.80
56436;DHT22;42335;44.872;20.658;2023-03-01T18:13:01;205.10;2252.80
56436;DHT22;42335;44.872;20.658;2023-03-01T18:15:27;205.00;2252.80
56436;DHT22;42335;44.872;20.658;2023-03-01T18:17:54;205.10;2252.80
56436;DHT22;42335;44.872;20.658;2023-03-01T18:20:20;205.10;2252.80
56436;DHT22;42335;44.872;20.658;2023-03-01T18:22:46;205.10;2252.80
56436;DHT22;42335;44.872;20.658;2023-03-01T18:25:13;205.20;2252.80
56436;DHT22;42335;44.872;20.658;2023-03-01T18:27:39;205.00;2252.80
56436;DHT22;42335;44.872;20.658;2023-03-01T18:30:07;205.00;2252.80
56436;DHT22;42335;44.872;20.658;2023-03-01T18:32:33;205.10;2252.80
56436;DHT22;42335;44.872;20.658;2023-03-01T18:34:59;205.20;2252.80
56436;DHT22;42335;44.872;20.658;2023-03-01T18:37:24;205.10;2252.80
56436;DHT22;42335;44.872;20.658;2023-03-01T18:39:51;205.10;2252.80
56436;DHT22;42335;44.872;20.658;2023-03-01T18:42:17;205.10;2252.80
56436;DHT22;42335;44.872;20.658;2023-03-01T18:44:45;205.00;2252.80
56436;DHT22;42335;44.872;20.658;2023-03-01T18:47:11;205.00;2252.80
56436;DHT22;42335;44.872;20.658;2023-03-01T18:49:39;205.10;2252.80
56436;DHT22;42335;44.872;20.658;2023-03-01T18:52:05;205.10;2252.80